Terminal Aerodrome Forecast
Issued by NWS

Home | Current Version | Previous Version | Text Only | Print | Product List | Glossary On
Versions: 1 2 3 4 5 6 7 8 9 10 11 12 13 14 15 16 17 18 19 20 21 22 23 24 25 26 27
000
FTUS46 KPQR 261338 AAA
TAFONP
TAF AMD
KONP 261338Z 2614/2712 VRB03KT 1/2SM FG OVC001
      TEMPO 2614/2617 5SM BR OVC030
     FM261700 35010KT P6SM FEW100
     FM262200 36012G18KT P6SM SKC
     FM270500 36004KT P6SM SKC=

USA.gov is the U.S. government's official web portal to all federal, state and local government web resources and services.